Wetterdaten: Sonntag, 28.06.2015
Datum Zeit Temp. Auen Feucht Auen Luftdruck Regen Richtung Richtung Windben
28.06.2015 00:00 15,3 C 91 % 1018,5 hPa 0,0 mm S 180 3,2 km/h (1 Bft)
28.06.2015 00:05 15,3 C 92 % 1018,5 hPa 0,0 mm S 179 3,2 km/h (1 Bft)
28.06.2015 00:10 15,2 C 91 % 1018,5 hPa 0,0 mm S 180 0,0 km/h (0 Bft)
28.06.2015 00:15 15,2 C 92 % 1018,5 hPa 0,0 mm S 180 0,0 km/h (0 Bft)
28.06.2015 00:20 15,1 C 92 % 1018,5 hPa 0,0 mm S 180 0,0 km/h (0 Bft)
28.06.2015 00:25 15,2 C 92 % 1018,7 hPa 0,0 mm N-NO 21 6,4 km/h (2 Bft)
28.06.2015 00:30 15,1 C 92 % 1018,6 hPa 2,8 mm NO 38 8,0 km/h (2 Bft)
28.06.2015 00:35 15,1 C 92 % 1018,6 hPa 0,0 mm N-NW 338 1,6 km/h (1 Bft)
28.06.2015 00:40 15,1 C 92 % 1018,7 hPa 0,0 mm W 281 6,4 km/h (2 Bft)
28.06.2015 00:45 15,2 C 92 % 1018,7 hPa 0,0 mm W-NW 292 3,2 km/h (1 Bft)
28.06.2015 00:50 15,3 C 92 % 1018,8 hPa 0,0 mm W-SW 251 4,8 km/h (1 Bft)
28.06.2015 00:55 15,3 C 92 % 1018,8 hPa 0,0 mm W-SW 255 1,6 km/h (1 Bft)
28.06.2015 01:00 15,3 C 92 % 1018,8 hPa 0,0 mm W-SW 255 4,8 km/h (1 Bft)
28.06.2015 01:05 15,3 C 92 % 1018,8 hPa 0,0 mm W 261 4,8 km/h (1 Bft)
28.06.2015 01:10 15,3 C 92 % 1018,8 hPa 0,0 mm W 277 4,8 km/h (1 Bft)
28.06.2015 01:15 15,2 C 92 % 1018,8 hPa 0,0 mm W 277 1,6 km/h (1 Bft)
28.06.2015 01:20 15,3 C 92 % 1019,0 hPa 0,2 mm N-NW 340 4,8 km/h (1 Bft)
28.06.2015 01:25 15,1 C 92 % 1019,0 hPa 0,0 mm N-NO 32 8,0 km/h (2 Bft)
28.06.2015 01:30 15,1 C 92 % 1019,1 hPa 0,0 mm W 259 4,8 km/h (1 Bft)
28.06.2015 01:35 15,1 C 91 % 1019,1 hPa 0,0 mm W 259 1,6 km/h (1 Bft)
28.06.2015 01:40 15,1 C 91 % 1019,1 hPa 0,0 mm W 259 0,0 km/h (0 Bft)
28.06.2015 01:45 15,1 C 91 % 1019,1 hPa 0,0 mm W 259 0,0 km/h (0 Bft)
28.06.2015 01:50 15,0 C 91 % 1019,0 hPa 0,0 mm W 259 0,0 km/h (0 Bft)
28.06.2015 01:55 14,9 C 92 % 1019,2 hPa 0,0 mm W 259 0,0 km/h (0 Bft)
28.06.2015 02:00 14,8 C 91 % 1019,1 hPa 0,0 mm W 259 0,0 km/h (0 Bft)
28.06.2015 02:05 14,7 C 92 % 1019,1 hPa 0,0 mm W 259 0,0 km/h (0 Bft)
28.06.2015 02:10 14,6 C 92 % 1019,1 hPa 0,0 mm W 259 0,0 km/h (0 Bft)
28.06.2015 02:15 14,6 C 92 % 1019,1 hPa 0,0 mm W 259 0,0 km/h (0 Bft)
28.06.2015 02:20 14,6 C 92 % 1019,2 hPa 0,0 mm W 259 0,0 km/h (0 Bft)
28.06.2015 02:25 14,6 C 92 % 1019,1 hPa 0,0 mm W 259 0,0 km/h (0 Bft)
28.06.2015 02:30 14,7 C 92 % 1019,1 hPa 0,0 mm W 259 0,0 km/h (0 Bft)
28.06.2015 02:35 14,7 C 92 % 1019,1 hPa 0,0 mm W 259 1,6 km/h (1 Bft)
28.06.2015 02:40 14,7 C 92 % 1019,1 hPa 0,0 mm W 259 1,6 km/h (1 Bft)
28.06.2015 02:45 14,6 C 92 % 1019,2 hPa 0,0 mm W 259 0,0 km/h (0 Bft)
28.06.2015 02:50 14,7 C 92 % 1019,2 hPa 0,0 mm W 259 0,0 km/h (0 Bft)
28.06.2015 02:55 14,6 C 92 % 1019,2 hPa 0,0 mm W 259 0,0 km/h (0 Bft)
28.06.2015 03:00 14,6 C 92 % 1019,2 hPa 0,0 mm W 259 0,0 km/h (0 Bft)
28.06.2015 03:05 14,6 C 92 % 1019,1 hPa 0,0 mm W 259 1,6 km/h (1 Bft)
28.06.2015 03:10 14,6 C 92 % 1019,2 hPa 0,0 mm W 259 1,6 km/h (1 Bft)
28.06.2015 03:15 14,6 C 92 % 1019,2 hPa 0,0 mm W 259 1,6 km/h (1 Bft)
28.06.2015 03:20 14,6 C 92 % 1019,2 hPa 0,0 mm W 259 1,6 km/h (1 Bft)
28.06.2015 03:25 14,5 C 92 % 1019,3 hPa 0,0 mm W 259 0,0 km/h (0 Bft)
28.06.2015 03:30 14,5 C 92 % 1019,2 hPa 0,0 mm W 259 0,0 km/h (0 Bft)
28.06.2015 03:35 14,5 C 92 % 1019,1 hPa 0,0 mm W 259 0,0 km/h (0 Bft)
28.06.2015 03:40 14,4 C 92 % 1019,2 hPa 0,0 mm W 259 0,0 km/h (0 Bft)
28.06.2015 03:45 14,3 C 92 % 1019,1 hPa 0,0 mm W 259 0,0 km/h (0 Bft)
28.06.2015 03:50 14,2 C 92 % 1019,0 hPa 0,0 mm W 259 0,0 km/h (0 Bft)
28.06.2015 03:55 14,1 C 92 % 1019,0 hPa 0,0 mm W 259 0,0 km/h (0 Bft)
28.06.2015 04:00 14,1 C 92 % 1019,1 hPa 0,0 mm W 259 0,0 km/h (0 Bft)
28.06.2015 04:05 13,9 C 92 % 1019,0 hPa 0,0 mm W 259 0,0 km/h (0 Bft)
28.06.2015 04:10 13,8 C 92 % 1019,0 hPa 0,0 mm W 259 0,0 km/h (0 Bft)
28.06.2015 04:15 13,7 C 92 % 1019,0 hPa 0,0 mm W 259 0,0 km/h (0 Bft)
28.06.2015 04:20 13,7 C 93 % 1019,1 hPa 0,0 mm W 259 0,0 km/h (0 Bft)
28.06.2015 04:25 13,9 C 92 % 1019,2 hPa 0,0 mm N-NW 340 3,2 km/h (1 Bft)
28.06.2015 04:30 14,2 C 93 % 1019,2 hPa 0,0 mm W-SW 240 8,0 km/h (2 Bft)
28.06.2015 04:35 14,4 C 93 % 1019,2 hPa 0,0 mm W-SW 244 4,8 km/h (1 Bft)
28.06.2015 04:40 14,5 C 92 % 1019,3 hPa 0,0 mm W-SW 244 1,6 km/h (1 Bft)
28.06.2015 04:45 14,5 C 92 % 1019,2 hPa 0,0 mm W-SW 246 3,2 km/h (1 Bft)
28.06.2015 04:50 14,4 C 92 % 1019,2 hPa 0,0 mm W-SW 246 3,2 km/h (1 Bft)
28.06.2015 04:55 14,4 C 92 % 1019,2 hPa 0,0 mm W-SW 246 3,2 km/h (1 Bft)
28.06.2015 05:00 14,5 C 92 % 1019,3 hPa 0,0 mm W-SW 246 1,6 km/h (1 Bft)
28.06.2015 05:05 14,5 C 92 % 1019,3 hPa 0,0 mm W-SW 246 1,6 km/h (1 Bft)
28.06.2015 05:10 14,6 C 92 % 1019,2 hPa 0,0 mm W-SW 246 1,6 km/h (1 Bft)
28.06.2015 05:15 14,6 C 92 % 1019,3 hPa 0,0 mm W-SW 246 1,6 km/h (1 Bft)
28.06.2015 05:20 14,7 C 92 % 1019,4 hPa 0,0 mm W-SW 246 1,6 km/h (1 Bft)
28.06.2015 05:25 14,7 C 92 % 1019,5 hPa 0,0 mm W-SW 246 1,6 km/h (1 Bft)
28.06.2015 05:30 14,7 C 92 % 1019,6 hPa 0,0 mm W-SW 246 0,0 km/h (0 Bft)
28.06.2015 05:35 14,7 C 92 % 1019,6 hPa 0,0 mm W-SW 246 1,6 km/h (1 Bft)
28.06.2015 05:40 14,7 C 92 % 1019,6 hPa 0,0 mm W-SW 246 3,2 km/h (1 Bft)
28.06.2015 05:45 14,7 C 92 % 1019,6 hPa 0,0 mm W 265 3,2 km/h (1 Bft)
28.06.2015 05:50 14,7 C 92 % 1019,6 hPa 0,0 mm W 277 3,2 km/h (1 Bft)
28.06.2015 05:55 14,8 C 92 % 1019,6 hPa 0,0 mm W 277 1,6 km/h (1 Bft)
28.06.2015 06:00 14,7 C 92 % 1019,6 hPa 0,0 mm W 277 3,2 km/h (1 Bft)
28.06.2015 06:05 14,7 C 91 % 1019,6 hPa 0,0 mm W 278 4,8 km/h (1 Bft)
28.06.2015 06:10 14,7 C 91 % 1019,7 hPa 0,0 mm W 278 3,2 km/h (1 Bft)
28.06.2015 06:15 14,7 C 91 % 1019,7 hPa 0,0 mm W 278 1,6 km/h (1 Bft)
28.06.2015 06:20 14,7 C 91 % 1019,7 hPa 0,0 mm W 278 0,0 km/h (0 Bft)
28.06.2015 06:25 14,8 C 91 % 1019,8 hPa 0,0 mm W 278 1,6 km/h (1 Bft)
28.06.2015 06:30 14,8 C 91 % 1019,8 hPa 0,0 mm W 278 4,8 km/h (1 Bft)
28.06.2015 06:35 14,8 C 91 % 1019,8 hPa 0,0 mm W 278 3,2 km/h (1 Bft)
28.06.2015 06:40 14,9 C 91 % 1019,8 hPa 0,0 mm W 278 1,6 km/h (1 Bft)
28.06.2015 06:45 14,9 C 92 % 1019,8 hPa 0,0 mm W 278 3,2 km/h (1 Bft)
28.06.2015 06:50 15,0 C 92 % 1019,9 hPa 0,0 mm W 278 4,8 km/h (1 Bft)
28.06.2015 06:55 15,0 C 91 % 1019,9 hPa 0,0 mm W 264 8,0 km/h (2 Bft)
28.06.2015 07:00 15,1 C 91 % 1019,9 hPa 0,0 mm W 279 9,7 km/h (2 Bft)
28.06.2015 07:05 15,1 C 91 % 1019,9 hPa 0,0 mm W 280 4,8 km/h (1 Bft)
28.06.2015 07:10 15,2 C 91 % 1019,9 hPa 0,0 mm W 274 8,0 km/h (2 Bft)
28.06.2015 07:15 15,4 C 91 % 1019,9 hPa 0,0 mm W 265 8,0 km/h (2 Bft)
28.06.2015 07:20 15,4 C 91 % 1020,0 hPa 0,0 mm W-SW 248 8,0 km/h (2 Bft)
28.06.2015 07:25 15,4 C 90 % 1020,0 hPa 0,0 mm W 279 6,4 km/h (2 Bft)
28.06.2015 07:30 15,5 C 90 % 1020,1 hPa 0,0 mm W-SW 249 3,2 km/h (1 Bft)
28.06.2015 07:35 15,5 C 91 % 1020,1 hPa 0,0 mm W 278 6,4 km/h (2 Bft)
28.06.2015 07:40 15,6 C 90 % 1020,1 hPa 0,0 mm W-SW 258 9,7 km/h (2 Bft)
28.06.2015 07:45 15,7 C 90 % 1020,3 hPa 0,0 mm W 263 6,4 km/h (2 Bft)
28.06.2015 07:50 15,7 C 90 % 1020,3 hPa 0,0 mm W 277 8,0 km/h (2 Bft)
28.06.2015 07:55 15,7 C 90 % 1020,3 hPa 0,0 mm W 277 6,4 km/h (2 Bft)
28.06.2015 08:00 15,7 C 90 % 1020,3 hPa 0,0 mm W-NW 286 9,7 km/h (2 Bft)
28.06.2015 08:05 15,7 C 90 % 1020,3 hPa 0,0 mm W 267 8,0 km/h (2 Bft)
28.06.2015 08:10 15,9 C 90 % 1020,2 hPa 0,0 mm W 267 9,7 km/h (2 Bft)
28.06.2015 08:15 16,2 C 89 % 1020,2 hPa 0,0 mm W 281 4,8 km/h (1 Bft)
28.06.2015 08:20 16,6 C 89 % 1020,2 hPa 0,0 mm W 265 8,0 km/h (2 Bft)
28.06.2015 08:25 16,8 C 88 % 1020,1 hPa 0,0 mm W 273 8,0 km/h (2 Bft)
28.06.2015 08:30 16,9 C 88 % 1020,2 hPa 0,0 mm W-NW 282 9,7 km/h (2 Bft)
28.06.2015 08:35 17,1 C 88 % 1020,0 hPa 0,0 mm W-SW 250 8,0 km/h (2 Bft)
28.06.2015 08:40 17,5 C 88 % 1020,0 hPa 0,0 mm W 262 4,8 km/h (1 Bft)
28.06.2015 08:45 17,3 C 86 % 1020,2 hPa 0,0 mm W 273 9,7 km/h (2 Bft)
28.06.2015 08:50 17,3 C 86 % 1020,2 hPa 0,0 mm W-SW 258 12,9 km/h (3 Bft)
28.06.2015 08:55 17,4 C 86 % 1020,3 hPa 0,0 mm W-NW 296 8,0 km/h (2 Bft)
28.06.2015 09:00 17,6 C 85 % 1020,4 hPa 0,0 mm W 260 8,0 km/h (2 Bft)
28.06.2015 09:05 17,5 C 86 % 1020,4 hPa 0,0 mm W-SW 256 11,3 km/h (2 Bft)
28.06.2015 09:10 17,5 C 85 % 1020,4 hPa 0,0 mm W-NW 282 9,7 km/h (2 Bft)
28.06.2015 09:15 17,4 C 85 % 1020,4 hPa 0,0 mm W 261 6,4 km/h (2 Bft)
28.06.2015 09:20 17,3 C 85 % 1020,5 hPa 0,0 mm W 265 8,0 km/h (2 Bft)
28.06.2015 09:25 17,3 C 86 % 1020,5 hPa 0,0 mm W 269 4,8 km/h (1 Bft)
28.06.2015 09:30 17,1 C 85 % 1020,6 hPa 0,0 mm W 271 4,8 km/h (1 Bft)
28.06.2015 09:35 17,0 C 85 % 1020,5 hPa 0,0 mm W 261 6,4 km/h (2 Bft)
28.06.2015 09:40 16,9 C 85 % 1020,6 hPa 0,0 mm W 260 11,3 km/h (2 Bft)
28.06.2015 09:45 17,2 C 86 % 1020,6 hPa 0,0 mm W-SW 256 8,0 km/h (2 Bft)
28.06.2015 09:50 17,6 C 85 % 1020,5 hPa 0,0 mm W 267 8,0 km/h (2 Bft)
28.06.2015 09:55 17,6 C 84 % 1020,6 hPa 0,0 mm W 269 6,4 km/h (2 Bft)
28.06.2015 10:00 17,7 C 84 % 1020,6 hPa 0,0 mm W 267 4,8 km/h (1 Bft)
28.06.2015 10:05 17,6 C 82 % 1020,5 hPa 0,0 mm W 265 8,0 km/h (2 Bft)
28.06.2015 10:10 17,6 C 82 % 1020,6 hPa 0,0 mm W 264 8,0 km/h (2 Bft)
28.06.2015 10:15 17,9 C 82 % 1020,7 hPa 0,0 mm W-SW 257 8,0 km/h (2 Bft)
28.06.2015 10:20 19,0 C 83 % 1020,5 hPa 0,0 mm W 273 4,8 km/h (1 Bft)
28.06.2015 10:25 19,7 C 79 % 1020,5 hPa 0,0 mm W-NW 286 4,8 km/h (1 Bft)
28.06.2015 10:30 20,2 C 76 % 1020,5 hPa 0,0 mm W 262 9,7 km/h (2 Bft)
28.06.2015 10:35 19,5 C 77 % 1020,4 hPa 0,0 mm W-NW 286 4,8 km/h (1 Bft)
28.06.2015 10:40 19,3 C 79 % 1020,4 hPa 0,0 mm W 265 9,7 km/h (2 Bft)
28.06.2015 10:45 19,1 C 79 % 1020,4 hPa 0,0 mm W 281 8,0 km/h (2 Bft)
28.06.2015 10:50 18,9 C 76 % 1020,4 hPa 0,0 mm W-SW 247 9,7 km/h (2 Bft)
28.06.2015 10:55 18,4 C 80 % 1020,4 hPa 0,8 mm NW 323 8,0 km/h (2 Bft)
28.06.2015 11:00 17,3 C 83 % 1020,5 hPa 0,2 mm W-NW 300 4,8 km/h (1 Bft)
28.06.2015 11:05 17,2 C 87 % 1020,7 hPa 0,8 mm W 261 8,0 km/h (2 Bft)
28.06.2015 11:10 16,3 C 87 % 1020,7 hPa 1,4 mm W-NW 282 9,7 km/h (2 Bft)
28.06.2015 11:15 16,1 C 89 % 1020,6 hPa 0,2 mm W-NW 282 1,6 km/h (1 Bft)
28.06.2015 11:20 16,4 C 90 % 1020,8 hPa 0,0 mm W-NW 288 4,8 km/h (1 Bft)
28.06.2015 11:25 16,2 C 89 % 1020,7 hPa 0,0 mm W-NW 288 0,0 km/h (0 Bft)
28.06.2015 11:30 16,4 C 90 % 1020,6 hPa 0,0 mm W-NW 288 1,6 km/h (1 Bft)
28.06.2015 11:35 16,5 C 90 % 1020,5 hPa 0,0 mm N-NW 346 1,6 km/h (1 Bft)
28.06.2015 11:40 17,1 C 88 % 1020,6 hPa 0,0 mm NO 34 3,2 km/h (1 Bft)
28.06.2015 11:45 17,3 C 87 % 1020,6 hPa 0,0 mm O-NO 57 3,2 km/h (1 Bft)
28.06.2015 11:50 16,9 C 87 % 1020,5 hPa 0,0 mm O 81 4,8 km/h (1 Bft)
28.06.2015 11:55 16,7 C 88 % 1020,5 hPa 0,2 mm O 94 4,8 km/h (1 Bft)
28.06.2015 12:00 16,6 C 89 % 1020,5 hPa 0,0 mm O-SO 115 6,4 km/h (2 Bft)
28.06.2015 12:05 16,6 C 89 % 1020,4 hPa 0,0 mm O-SO 121 4,8 km/h (1 Bft)
28.06.2015 12:10 17,3 C 89 % 1020,5 hPa 0,0 mm O-NO 78 6,4 km/h (2 Bft)
28.06.2015 12:15 17,6 C 88 % 1020,4 hPa 0,0 mm O 83 3,2 km/h (1 Bft)
28.06.2015 12:20 17,8 C 88 % 1020,4 hPa 0,0 mm O-NO 65 4,8 km/h (1 Bft)
28.06.2015 12:25 18,4 C 86 % 1020,3 hPa 0,0 mm S-SO 152 6,4 km/h (2 Bft)
28.06.2015 12:30 18,3 C 84 % 1020,3 hPa 0,0 mm S-SO 165 6,4 km/h (2 Bft)
28.06.2015 12:35 18,8 C 84 % 1020,2 hPa 0,0 mm SO 138 6,4 km/h (2 Bft)
28.06.2015 12:40 18,6 C 84 % 1020,1 hPa 0,0 mm S-SO 167 6,4 km/h (2 Bft)
28.06.2015 12:45 19,5 C 86 % 1020,1 hPa 0,0 mm W 276 4,8 km/h (1 Bft)
28.06.2015 12:50 20,8 C 80 % 1020,1 hPa 0,0 mm W-SW 250 8,0 km/h (2 Bft)
28.06.2015 12:55 21,2 C 79 % 1020,1 hPa 0,0 mm W-NW 285 6,4 km/h (2 Bft)
28.06.2015 13:00 20,0 C 76 % 1020,0 hPa 0,0 mm S-SO 161 6,4 km/h (2 Bft)
28.06.2015 13:05 20,1 C 81 % 1020,0 hPa 0,0 mm W 266 6,4 km/h (2 Bft)
28.06.2015 13:10 19,9 C 78 % 1020,1 hPa 0,0 mm W 268 3,2 km/h (1 Bft)
28.06.2015 13:15 19,9 C 76 % 1020,1 hPa 0,0 mm N 5 8,0 km/h (2 Bft)
28.06.2015 13:20 19,8 C 79 % 1020,2 hPa 0,0 mm W 278 4,8 km/h (1 Bft)
28.06.2015 13:25 19,5 C 78 % 1020,3 hPa 0,0 mm W-SW 248 11,3 km/h (2 Bft)
28.06.2015 13:30 19,3 C 77 % 1020,3 hPa 0,0 mm W-SW 258 9,7 km/h (2 Bft)
28.06.2015 13:35 19,6 C 76 % 1020,3 hPa 0,0 mm SW 236 11,3 km/h (2 Bft)
28.06.2015 13:40 20,5 C 74 % 1020,2 hPa 0,0 mm N 355 8,0 km/h (2 Bft)
28.06.2015 13:45 21,2 C 68 % 1020,0 hPa 0,0 mm W-SW 244 12,9 km/h (3 Bft)
28.06.2015 13:50 21,8 C 69 % 1019,9 hPa 0,0 mm W-SW 242 9,7 km/h (2 Bft)
28.06.2015 13:55 22,2 C 67 % 1019,9 hPa 0,0 mm W-SW 257 11,3 km/h (2 Bft)
28.06.2015 14:00 22,1 C 65 % 1019,8 hPa 0,0 mm W-SW 244 11,3 km/h (2 Bft)
28.06.2015 14:05 22,1 C 66 % 1019,8 hPa 0,0 mm W-SW 247 12,9 km/h (3 Bft)
28.06.2015 14:10 22,3 C 60 % 1019,8 hPa 0,0 mm W-SW 258 14,5 km/h (3 Bft)
28.06.2015 14:15 22,6 C 61 % 1019,7 hPa 0,0 mm W-NW 292 9,7 km/h (2 Bft)
28.06.2015 14:20 22,8 C 57 % 1019,8 hPa 0,0 mm W-SW 252 19,3 km/h (3 Bft)
28.06.2015 14:25 22,7 C 61 % 1019,7 hPa 0,0 mm W 279 16,1 km/h (3 Bft)
28.06.2015 14:30 22,8 C 59 % 1019,7 hPa 0,0 mm W 269 11,3 km/h (2 Bft)
28.06.2015 14:35 22,8 C 63 % 1019,7 hPa 0,0 mm W-NW 287 9,7 km/h (2 Bft)
28.06.2015 14:40 23,5 C 61 % 1019,6 hPa 0,0 mm W 260 8,0 km/h (2 Bft)
28.06.2015 14:45 23,1 C 56 % 1019,5 hPa 0,0 mm NW 321 19,3 km/h (3 Bft)
28.06.2015 14:50 22,3 C 58 % 1019,5 hPa 0,0 mm N-NW 343 6,4 km/h (2 Bft)
28.06.2015 14:55 21,9 C 60 % 1019,5 hPa 0,0 mm N 5 4,8 km/h (1 Bft)
28.06.2015 15:00 21,7 C 59 % 1019,5 hPa 0,0 mm W-SW 254 11,3 km/h (2 Bft)
28.06.2015 15:05 21,4 C 61 % 1019,5 hPa 0,0 mm W-SW 247 6,4 km/h (2 Bft)
28.06.2015 15:10 20,9 C 64 % 1019,6 hPa 0,0 mm N-NO 22 8,0 km/h (2 Bft)
28.06.2015 15:15 20,3 C 68 % 1019,7 hPa 0,0 mm N-NO 30 8,0 km/h (2 Bft)
28.06.2015 15:20 20,0 C 69 % 1019,7 hPa 0,0 mm SW 236 6,4 km/h (2 Bft)
28.06.2015 15:25 19,9 C 70 % 1019,8 hPa 0,0 mm W 271 8,0 km/h (2 Bft)
28.06.2015 15:30 19,6 C 74 % 1019,8 hPa 0,2 mm W-NW 300 3,2 km/h (1 Bft)
28.06.2015 15:35 19,8 C 76 % 1019,8 hPa 0,0 mm W-NW 300 1,6 km/h (1 Bft)
28.06.2015 15:40 20,3 C 73 % 1019,7 hPa 0,0 mm NW 306 1,6 km/h (1 Bft)
28.06.2015 15:45 20,4 C 68 % 1019,6 hPa 0,0 mm N-NW 331 3,2 km/h (1 Bft)
28.06.2015 15:50 20,3 C 68 % 1019,7 hPa 0,0 mm W 269 6,4 km/h (2 Bft)
28.06.2015 15:55 20,4 C 65 % 1019,6 hPa 0,0 mm W-SW 246 6,4 km/h (2 Bft)
28.06.2015 16:00 20,4 C 66 % 1019,7 hPa 0,0 mm SW 215 6,4 km/h (2 Bft)
28.06.2015 16:05 20,3 C 68 % 1019,6 hPa 0,0 mm W-SW 246 6,4 km/h (2 Bft)
28.06.2015 16:10 20,2 C 67 % 1019,5 hPa 0,0 mm W-SW 247 4,8 km/h (1 Bft)
28.06.2015 16:15 20,4 C 67 % 1019,5 hPa 0,0 mm W 275 3,2 km/h (1 Bft)
28.06.2015 16:20 20,8 C 65 % 1019,5 hPa 0,0 mm W 261 4,8 km/h (1 Bft)
28.06.2015 16:25 21,0 C 62 % 1019,6 hPa 0,0 mm W 264 3,2 km/h (1 Bft)
28.06.2015 16:30 20,8 C 64 % 1019,6 hPa 0,0 mm S 180 6,4 km/h (2 Bft)
28.06.2015 16:35 20,8 C 69 % 1019,6 hPa 0,0 mm S-SW 194 4,8 km/h (1 Bft)
28.06.2015 16:40 22,2 C 65 % 1019,6 hPa 0,0 mm W 263 11,3 km/h (2 Bft)
28.06.2015 16:45 21,6 C 62 % 1019,7 hPa 0,0 mm N-NO 28 12,9 km/h (3 Bft)
28.06.2015 16:50 20,6 C 66 % 1019,8 hPa 0,0 mm W-SW 245 11,3 km/h (2 Bft)
28.06.2015 16:55 20,1 C 65 % 1019,7 hPa 0,0 mm W-NW 289 11,3 km/h (2 Bft)
28.06.2015 17:00 20,1 C 66 % 1019,7 hPa 0,0 mm W-SW 254 4,8 km/h (1 Bft)
28.06.2015 17:05 19,6 C 68 % 1019,7 hPa 0,0 mm W-SW 254 4,8 km/h (1 Bft)
28.06.2015 17:10 19,8 C 71 % 1019,7 hPa 0,0 mm SO 144 6,4 km/h (2 Bft)
28.06.2015 17:15 19,6 C 74 % 1019,5 hPa 0,0 mm S-SO 147 9,7 km/h (2 Bft)
28.06.2015 17:20 19,8 C 73 % 1019,5 hPa 0,0 mm SO 144 8,0 km/h (2 Bft)
28.06.2015 17:25 20,1 C 70 % 1019,5 hPa 0,0 mm O-NO 76 4,8 km/h (1 Bft)
28.06.2015 17:30 20,1 C 71 % 1019,4 hPa 0,0 mm O-NO 57 8,0 km/h (2 Bft)
28.06.2015 17:35 19,8 C 72 % 1019,5 hPa 0,0 mm O-NO 76 6,4 km/h (2 Bft)
28.06.2015 17:40 19,6 C 74 % 1019,5 hPa 0,0 mm O 94 6,4 km/h (2 Bft)
28.06.2015 17:45 19,9 C 71 % 1019,4 hPa 0,0 mm O 99 8,0 km/h (2 Bft)
28.06.2015 17:50 20,1 C 71 % 1019,4 hPa 0,0 mm O-SO 106 9,7 km/h (2 Bft)
28.06.2015 17:55 20,1 C 71 % 1019,3 hPa 0,0 mm O 94 11,3 km/h (2 Bft)
28.06.2015 18:00 20,2 C 72 % 1019,4 hPa 0,0 mm O-NO 64 9,7 km/h (2 Bft)
28.06.2015 18:05 20,1 C 73 % 1019,4 hPa 0,0 mm O-SO 107 11,3 km/h (2 Bft)
28.06.2015 18:10 19,8 C 73 % 1019,4 hPa 0,0 mm NO 34 11,3 km/h (2 Bft)
28.06.2015 18:15 19,5 C 74 % 1019,5 hPa 0,0 mm N 9 8,0 km/h (2 Bft)
28.06.2015 18:20 19,2 C 77 % 1019,4 hPa 0,0 mm O-NO 73 8,0 km/h (2 Bft)
28.06.2015 18:25 19,4 C 79 % 1019,5 hPa 0,0 mm O 96 11,3 km/h (2 Bft)
28.06.2015 18:30 19,4 C 78 % 1019,6 hPa 0,0 mm SO 128 11,3 km/h (2 Bft)
28.06.2015 18:35 19,3 C 79 % 1019,5 hPa 0,0 mm O-NO 73 11,3 km/h (2 Bft)
28.06.2015 18:40 19,4 C 80 % 1019,5 hPa 0,0 mm O 82 8,0 km/h (2 Bft)
28.06.2015 18:45 19,3 C 78 % 1019,6 hPa 0,0 mm O 99 8,0 km/h (2 Bft)
28.06.2015 18:50 19,3 C 79 % 1019,6 hPa 0,0 mm O-SO 115 6,4 km/h (2 Bft)
28.06.2015 18:55 19,3 C 77 % 1019,7 hPa 0,0 mm O 88 8,0 km/h (2 Bft)
28.06.2015 19:00 19,0 C 78 % 1019,7 hPa 0,0 mm SO 132 6,4 km/h (2 Bft)
28.06.2015 19:05 18,8 C 80 % 1019,7 hPa 0,0 mm O-SO 123 4,8 km/h (1 Bft)
28.06.2015 19:10 18,7 C 81 % 1019,7 hPa 0,0 mm O-NO 77 4,8 km/h (1 Bft)
28.06.2015 19:15 18,6 C 82 % 1019,8 hPa 0,0 mm O-NO 77 4,8 km/h (1 Bft)
28.06.2015 19:20 18,8 C 82 % 1019,8 hPa 0,0 mm O 91 3,2 km/h (1 Bft)
28.06.2015 19:25 18,8 C 82 % 1019,8 hPa 0,0 mm O 91 3,2 km/h (1 Bft)
28.06.2015 19:30 18,6 C 83 % 1019,9 hPa 0,0 mm O 91 3,2 km/h (1 Bft)
28.06.2015 19:35 18,4 C 84 % 1019,9 hPa 0,0 mm O 92 3,2 km/h (1 Bft)
28.06.2015 19:40 18,3 C 84 % 1020,0 hPa 0,0 mm O 93 3,2 km/h (1 Bft)
28.06.2015 19:45 18,2 C 85 % 1020,1 hPa 0,0 mm O 93 3,2 km/h (1 Bft)
28.06.2015 19:50 18,1 C 85 % 1020,3 hPa 0,0 mm O 93 3,2 km/h (1 Bft)
28.06.2015 19:55 18,0 C 85 % 1020,4 hPa 0,0 mm O 93 1,6 km/h (1 Bft)
28.06.2015 20:00 18,0 C 85 % 1020,4 hPa 0,0 mm O 93 1,6 km/h (1 Bft)
28.06.2015 20:05 18,0 C 85 % 1020,4 hPa 0,0 mm O 96 3,2 km/h (1 Bft)
28.06.2015 20:10 18,0 C 85 % 1020,4 hPa 0,0 mm SO 140 3,2 km/h (1 Bft)
28.06.2015 20:15 17,9 C 84 % 1020,5 hPa 0,0 mm SO 140 1,6 km/h (1 Bft)
28.06.2015 20:20 17,9 C 85 % 1020,5 hPa 0,0 mm SO 140 0,0 km/h (0 Bft)
28.06.2015 20:25 17,8 C 85 % 1020,6 hPa 0,0 mm SO 140 0,0 km/h (0 Bft)
28.06.2015 20:30 17,5 C 86 % 1020,7 hPa 0,0 mm SO 140 0,0 km/h (0 Bft)
28.06.2015 20:35 17,2 C 87 % 1020,7 hPa 0,0 mm SO 140 1,6 km/h (1 Bft)
28.06.2015 20:40 17,1 C 87 % 1020,7 hPa 0,0 mm SO 140 0,0 km/h (0 Bft)
28.06.2015 20:45 17,1 C 87 % 1020,7 hPa 0,0 mm SO 140 0,0 km/h (0 Bft)
28.06.2015 20:50 16,9 C 88 % 1020,7 hPa 0,0 mm SO 140 0,0 km/h (0 Bft)
28.06.2015 20:55 16,8 C 88 % 1020,7 hPa 0,0 mm SO 140 0,0 km/h (0 Bft)
28.06.2015 21:00 16,7 C 88 % 1020,7 hPa 0,0 mm SO 140 0,0 km/h (0 Bft)
28.06.2015 21:05 16,4 C 88 % 1020,8 hPa 0,0 mm SO 140 0,0 km/h (0 Bft)
28.06.2015 21:10 16,2 C 89 % 1020,9 hPa 0,0 mm SO 140 0,0 km/h (0 Bft)
28.06.2015 21:15 15,9 C 89 % 1020,9 hPa 0,0 mm SO 140 0,0 km/h (0 Bft)
28.06.2015 21:20 15,7 C 90 % 1021,0 hPa 0,0 mm SO 140 0,0 km/h (0 Bft)
28.06.2015 21:25 15,6 C 90 % 1021,0 hPa 0,0 mm SO 140 0,0 km/h (0 Bft)
28.06.2015 21:30 15,2 C 90 % 1021,2 hPa 0,0 mm SO 140 0,0 km/h (0 Bft)
28.06.2015 21:35 15,1 C 90 % 1021,3 hPa 0,0 mm SO 140 0,0 km/h (0 Bft)
28.06.2015 21:40 15,1 C 90 % 1021,4 hPa 0,0 mm SO 140 0,0 km/h (0 Bft)
28.06.2015 21:45 15,0 C 90 % 1021,4 hPa 0,0 mm SO 140 0,0 km/h (0 Bft)
28.06.2015 21:50 14,8 C 90 % 1021,4 hPa 0,0 mm SO 140 0,0 km/h (0 Bft)
28.06.2015 21:55 14,6 C 90 % 1021,5 hPa 0,0 mm SO 140 0,0 km/h (0 Bft)
28.06.2015 22:00 14,6 C 90 % 1021,5 hPa 0,0 mm SO 140 0,0 km/h (0 Bft)
28.06.2015 22:05 14,6 C 90 % 1021,6 hPa 0,0 mm SO 140 0,0 km/h (0 Bft)
28.06.2015 22:10 14,4 C 90 % 1021,6 hPa 0,0 mm SO 140 1,6 km/h (1 Bft)
28.06.2015 22:15 14,4 C 90 % 1021,6 hPa 0,0 mm SO 140 1,6 km/h (1 Bft)
28.06.2015 22:20 14,2 C 90 % 1021,6 hPa 0,0 mm SO 140 0,0 km/h (0 Bft)
28.06.2015 22:25 14,2 C 90 % 1021,6 hPa 0,0 mm SO 140 0,0 km/h (0 Bft)
28.06.2015 22:30 14,2 C 90 % 1021,6 hPa 0,0 mm SO 140 0,0 km/h (0 Bft)
28.06.2015 22:35 14,1 C 90 % 1021,6 hPa 0,0 mm SO 140 0,0 km/h (0 Bft)
28.06.2015 22:40 14,1 C 91 % 1021,7 hPa 0,0 mm SO 140 0,0 km/h (0 Bft)
28.06.2015 22:45 13,8 C 90 % 1021,7 hPa 0,0 mm SO 140 0,0 km/h (0 Bft)
28.06.2015 22:50 14,0 C 91 % 1021,7 hPa 0,0 mm SO 140 1,6 km/h (1 Bft)
28.06.2015 22:55 13,8 C 90 % 1021,7 hPa 0,0 mm SO 140 0,0 km/h (0 Bft)
28.06.2015 23:00 13,8 C 91 % 1021,8 hPa 0,0 mm SO 140 0,0 km/h (0 Bft)
28.06.2015 23:05 13,7 C 91 % 1021,8 hPa 0,0 mm SO 140 0,0 km/h (0 Bft)
28.06.2015 23:10 13,7 C 91 % 1021,8 hPa 0,0 mm SO 140 0,0 km/h (0 Bft)
28.06.2015 23:15 13,6 C 91 % 1021,8 hPa 0,0 mm SO 140 0,0 km/h (0 Bft)
28.06.2015 23:20 13,5 C 91 % 1021,9 hPa 0,0 mm SO 140 1,6 km/h (1 Bft)
28.06.2015 23:25 13,4 C 91 % 1022,0 hPa 0,0 mm SO 140 0,0 km/h (0 Bft)
28.06.2015 23:30 13,2 C 91 % 1022,0 hPa 0,0 mm SO 140 0,0 km/h (0 Bft)
28.06.2015 23:35 13,1 C 91 % 1022,0 hPa 0,0 mm SO 140 0,0 km/h (0 Bft)
28.06.2015 23:40 13,2 C 91 % 1022,0 hPa 0,0 mm SO 140 0,0 km/h (0 Bft)
28.06.2015 23:45 13,1 C 91 % 1022,0 hPa 0,0 mm SO 140 0,0 km/h (0 Bft)
28.06.2015 23:50 13,0 C 91 % 1022,0 hPa 0,0 mm SO 140 0,0 km/h (0 Bft)
28.06.2015 23:55 13,0 C 91 % 1021,9 hPa 0,0 mm SO 140 0,0 km/h (0 Bft)
_ Min-Zeit 23:50 14:45 00:00 - - - 00:10
Minimum _ 13,0 C 56 % 1018,5 hPa - - - 0,0 km/h (0 Bft)
_ Max-Zeit 14:40 04:20 23:25 00:30 - - 14:20
Maximum _ 23,5 C 93 % 1022,0 hPa 2,8 mm - - 19,3 km/h
W-SW (3 Bft)
Durchschnitt _ 17,0 C 84 % 1020,0 hPa #6,8 mm W - 4,6 km/h (1 Bft)